Time;durP1;ratioP1;P1;durP2;ratioP2;P2;SDS_P1;SDS_P2;PMS_P1;PMS_P2;Temp;Humidity;BMP_temperature;BMP_pressure;BME280_temperature;BME280_humidity;BME280_pressure;Samples;Min_cycle;Max_cycle;Signal;HPM_P1;HPM_P2
2021/03/08 00:01:15;;;;;;;30.95;17.60;;;;;;;0.06;58.45;96710.75;5032592;28;20068;-73
2021/03/08 00:03:41;;;;;;;33.20;19.30;;;;;;;0.02;58.57;96717.16;5033629;28;20397;-73
2021/03/08 00:06:07;;;;;;;32.60;18.90;;;;;;;-0.05;58.46;96722.09;5033122;28;20042;-73
2021/03/08 00:08:33;;;;;;;32.03;18.45;;;;;;;-0.14;58.55;96722.16;5033354;28;20413;-73
2021/03/08 00:10:59;;;;;;;36.85;20.23;;;;;;;-0.21;58.63;96719.31;5033350;28;20458;-73
2021/03/08 00:13:26;;;;;;;34.30;19.10;;;;;;;-0.26;58.97;96721.53;5033318;28;20033;-73
2021/03/08 00:15:52;;;;;;;38.83;20.15;;;;;;;-0.28;58.95;96715.72;5023635;28;20044;-73
2021/03/08 00:18:18;;;;;;;34.97;20.02;;;;;;;-0.29;59.04;96711.53;5033403;28;20033;-72
2021/03/08 00:20:44;;;;;;;39.85;22.05;;;;;;;-0.33;59.06;96708.41;5033189;28;20034;-73
2021/03/08 00:23:10;;;;;;;39.53;20.90;;;;;;;-0.37;58.89;96712.22;5033041;28;20037;-73
2021/03/08 00:25:37;;;;;;;38.03;21.00;;;;;;;-0.42;59.24;96710.09;5024535;28;20049;-73
2021/03/08 00:28:03;;;;;;;40.70;20.42;;;;;;;-0.45;59.18;96710.34;5033046;28;20046;-73
2021/03/08 00:30:29;;;;;;;37.05;19.77;;;;;;;-0.47;59.45;96706.31;5033614;28;20037;-73
2021/03/08 00:32:56;;;;;;;33.13;19.25;;;;;;;-0.48;59.63;96709.84;5032483;28;20049;-73
2021/03/08 00:35:22;;;;;;;32.60;18.25;;;;;;;-0.48;59.56;96709.84;5033648;28;20044;-72
2021/03/08 00:37:49;;;;;;;32.90;18.52;;;;;;;-0.51;59.61;96712.69;5032966;28;20397;-73
2021/03/08 00:40:20;;;;;;;33.47;18.33;;;;;;;-0.52;59.91;96704.16;5032541;28;20053;-72
2021/03/08 00:42:47;;;;;;;30.65;18.05;;;;;;;-0.51;59.61;96698.03;5033198;28;20052;-73
2021/03/08 00:45:17;;;;;;;32.30;18.75;;;;;;;-0.49;59.88;96703.88;5033110;28;20045;-72
2021/03/08 00:47:43;;;;;;;38.10;18.15;;;;;;;-0.47;59.75;96701.16;5033477;28;20038;-73
2021/03/08 00:50:14;;;;;;;30.88;18.63;;;;;;;-0.47;59.81;96708.88;5037451;28;20462;-72
2021/03/08 00:52:41;;;;;;;30.52;16.92;;;;;;;-0.50;59.82;96710.00;5036983;28;20414;-73
2021/03/08 00:55:08;;;;;;;30.17;16.98;;;;;;;-0.56;59.63;96709.75;5037154;28;20048;-73
2021/03/08 00:57:35;;;;;;;27.77;17.17;;;;;;;-0.57;59.59;96708.09;5036831;28;20034;-73
2021/03/08 01:00:01;;;;;;;32.47;17.60;;;;;;;-0.61;59.67;96707.56;5036557;28;20041;-73
2021/03/08 01:02:27;;;;;;;28.85;16.98;;;;;;;-0.67;59.71;96697.88;5036794;28;20048;-72
2021/03/08 01:04:53;;;;;;;30.85;16.83;;;;;;;-0.68;59.92;96698.78;5030550;28;20033;-73
2021/03/08 01:07:19;;;;;;;29.98;17.83;;;;;;;-0.70;59.93;96701.50;5037253;28;20037;-73
2021/03/08 01:09:45;;;;;;;31.73;18.02;;;;;;;-0.69;59.73;96697.19;5036654;28;20048;-73
2021/03/08 01:12:13;;;;;;;29.13;17.27;;;;;;;-0.73;60.05;96688.94;5036663;28;20046;-72
2021/03/08 01:14:39;;;;;;;30.45;17.38;;;;;;;-0.75;59.99;96690.03;5018675;28;20041;-73
2021/03/08 01:17:05;;;;;;;33.13;17.95;;;;;;;-0.75;60.15;96677.16;5035736;28;20049;-73
2021/03/08 01:19:31;;;;;;;29.48;16.67;;;;;;;-0.73;60.41;96681.19;5018691;28;20508;-72
2021/03/08 01:21:57;;;;;;;27.95;16.20;;;;;;;-0.73;59.96;96686.34;5036456;28;20037;-73
2021/03/08 01:24:24;;;;;;;29.63;17.33;;;;;;;-0.75;60.35;96685.69;5036703;28;20089;-73
2021/03/08 01:26:50;;;;;;;31.88;17.58;;;;;;;-0.76;60.13;96680.66;5036230;28;20044;-72
2021/03/08 01:29:16;;;;;;;31.73;18.45;;;;;;;-0.82;60.21;96677.72;5035447;28;20050;-74
2021/03/08 01:31:43;;;;;;;28.63;16.80;;;;;;;-0.82;60.25;96674.31;5008675;28;20034;-72
2021/03/08 01:34:09;;;;;;;29.60;18.10;;;;;;;-0.87;60.19;96677.31;5035923;28;20435;-73
2021/03/08 01:36:36;;;;;;;28.98;16.80;;;;;;;-0.87;60.30;96671.34;5036458;28;20401;-72
2021/03/08 01:39:04;;;;;;;30.90;17.58;;;;;;;-0.89;60.58;96673.25;5035904;28;20053;-72
2021/03/08 01:41:30;;;;;;;25.83;15.65;;;;;;;-0.90;60.11;96676.78;5035962;28;20052;-72
2021/03/08 01:43:56;;;;;;;29.40;15.95;;;;;;;-0.93;60.32;96674.47;5035886;28;20052;-72
2021/03/08 01:46:22;;;;;;;24.08;14.40;;;;;;;-0.95;60.07;96671.25;5035709;28;20044;-73
2021/03/08 01:48:49;;;;;;;27.92;16.08;;;;;;;-0.98;60.38;96663.81;5035754;28;20056;-72
2021/03/08 01:51:16;;;;;;;26.38;15.98;;;;;;;-1.01;60.48;96662.31;5034590;28;20493;-73
2021/03/08 01:53:42;;;;;;;25.98;15.85;;;;;;;-1.02;60.22;96663.28;5035890;28;20045;-72
2021/03/08 01:56:09;;;;;;;23.88;14.23;;;;;;;-1.05;60.38;96659.22;5035764;28;20037;-72
2021/03/08 01:58:35;;;;;;;26.83;14.90;;;;;;;-1.10;60.11;96658.81;5035381;28;20056;-73
2021/03/08 02:01:03;;;;;;;25.02;14.88;;;;;;;-1.15;60.52;96658.44;5034854;28;20044;-73
2021/03/08 02:03:29;;;;;;;26.73;15.52;;;;;;;-1.22;60.29;96652.19;5035473;28;20390;-73
2021/03/08 02:05:56;;;;;;;26.20;15.30;;;;;;;-1.28;59.99;96650.19;5035849;28;20044;-73
2021/03/08 02:08:23;;;;;;;29.45;15.90;;;;;;;-1.38;60.35;96645.06;5035384;28;20041;-73
2021/03/08 02:10:50;;;;;;;33.92;16.23;;;;;;;-1.42;60.74;96650.63;5035459;28;20037;-73
2021/03/08 02:13:44;;;;;;;26.27;15.90;;;;;;;-1.44;61.62;96646.41;5034982;28;20386;-73
2021/03/08 02:16:32;;;;;;;29.00;16.07;;;;;;;-1.42;61.78;96650.63;5025427;28;20034;-73
2021/03/08 02:19:06;;;;;;;23.58;15.15;;;;;;;-1.41;61.07;96639.38;5027556;28;20025;-73
2021/03/08 02:21:56;;;;;;;;;;;;;;;-1.40;61.76;96651.31;5035485;28;20045;-73
2021/03/08 02:24:43;;;;;;;29.00;15.48;;;;;;;-1.39;62.02;96647.78;5035337;28;20357;-73
2021/03/08 02:27:21;;;;;;;28.25;15.80;;;;;;;-1.39;61.25;96646.00;5035332;28;20037;-73
2021/03/08 02:29:50;;;;;;;27.40;15.00;;;;;;;-1.41;61.24;96645.31;5035226;28;20048;-73
2021/03/08 02:32:19;;;;;;;23.90;14.65;;;;;;;-1.40;60.73;96643.59;5035008;28;20359;-73
2021/03/08 02:35:14;;;;;;;26.63;14.60;;;;;;;-1.40;61.58;96644.41;5034820;28;20037;-73
2021/03/08 02:37:44;;;;;;;;;;;;;;;-1.44;61.60;96653.34;5032033;28;20056;-73
2021/03/08 02:40:18;;;;;;;22.45;13.45;;;;;;;-1.47;61.06;96653.59;5034987;28;19924;-73
2021/03/08 02:42:51;;;;;;;26.52;15.18;;;;;;;-1.47;60.96;96651.84;5035522;28;20045;-73
2021/03/08 02:45:19;;;;;;;23.85;14.48;;;;;;;-1.47;60.62;96649.28;5034122;28;20048;-73
2021/03/08 02:47:47;;;;;;;24.73;14.65;;;;;;;-1.49;60.84;96647.78;5035084;28;20473;-73
2021/03/08 02:50:14;;;;;;;26.30;15.25;;;;;;;-1.51;60.63;96650.50;5033989;28;20060;-73
2021/03/08 02:52:54;;;;;;;23.25;13.88;;;;;;;-1.57;60.85;96648.47;5020511;28;20064;-73
2021/03/08 02:55:24;;;;;;;25.27;15.30;;;;;;;-1.59;60.66;96642.66;5035011;28;20378;-73
2021/03/08 02:57:52;;;;;;;26.52;14.68;;;;;;;-1.64;60.94;96642.25;5035075;28;20511;-73
2021/03/08 03:00:19;;;;;;;24.85;14.48;;;;;;;-1.68;60.51;96644.28;5034484;28;20405;-73
2021/03/08 03:02:46;;;;;;;21.13;12.60;;;;;;;-1.73;60.65;96637.94;5034490;28;20060;-73
2021/03/08 03:05:15;;;;;;;20.50;12.10;;;;;;;-1.77;60.50;96636.56;5034818;28;20038;-74
2021/03/08 03:07:47;;;;;;;23.10;12.23;;;;;;;-1.75;60.41;96643.19;5034518;28;20478;-73
2021/03/08 03:10:14;;;;;;;21.95;11.00;;;;;;;-1.73;60.40;96646.44;5026510;28;20048;-73
2021/03/08 03:12:42;;;;;;;16.98;11.75;;;;;;;-1.67;60.51;96642.53;5034156;28;20042;-73
2021/03/08 03:15:11;;;;;;;20.02;11.48;;;;;;;-1.64;60.30;96640.50;5034218;28;20509;-73
2021/03/08 03:17:40;;;;;;;18.67;11.85;;;;;;;-1.61;60.08;96649.69;5033991;28;20045;-73
2021/03/08 03:20:11;;;;;;;17.83;11.63;;;;;;;-1.60;60.01;96651.31;5034238;28;20104;-73
2021/03/08 03:22:39;;;;;;;20.33;12.52;;;;;;;-1.58;60.37;96651.19;5034134;28;20029;-73
2021/03/08 03:25:06;;;;;;;21.13;12.50;;;;;;;-1.56;60.18;96657.81;5034253;28;20041;-73
2021/03/08 03:27:34;;;;;;;23.35;12.05;;;;;;;-1.57;60.19;96648.47;5034378;28;20120;-73
2021/03/08 03:30:01;;;;;;;18.73;11.63;;;;;;;-1.57;60.34;96642.53;5034202;28;20374;-72
2021/03/08 03:32:28;;;;;;;21.63;12.45;;;;;;;-1.59;59.87;96649.56;5033758;28;20034;-73
2021/03/08 03:34:55;;;;;;;20.05;11.85;;;;;;;-1.63;60.37;96643.88;5033397;28;20482;-73
2021/03/08 03:37:25;;;;;;;23.92;12.43;;;;;;;-1.64;60.06;96644.81;5033747;28;20063;-73
2021/03/08 03:39:52;;;;;;;23.80;13.55;;;;;;;-1.66;59.90;96649.28;5031403;28;20049;-73
2021/03/08 03:42:18;;;;;;;21.15;12.73;;;;;;;-1.66;59.97;96657.00;5034068;28;20049;-73
2021/03/08 03:44:45;;;;;;;20.25;12.48;;;;;;;-1.70;60.01;96647.94;5033712;28;20037;-73
2021/03/08 03:47:13;;;;;;;20.33;12.88;;;;;;;-1.70;59.97;96661.63;5033539;28;20040;-73
2021/03/08 03:49:39;;;;;;;19.98;12.50;;;;;;;-1.70;59.85;96653.91;5033783;28;20052;-73
2021/03/08 03:52:06;;;;;;;21.58;13.43;;;;;;;-1.68;59.79;96652.00;5034144;28;20033;-73
2021/03/08 03:54:33;;;;;;;20.58;13.00;;;;;;;-1.67;59.80;96656.19;5033851;28;20068;-73
2021/03/08 03:57:04;;;;;;;24.67;13.60;;;;;;;-1.65;60.16;96656.88;5033440;28;20466;-72
2021/03/08 03:59:49;;;;;;;20.55;12.93;;;;;;;-1.64;59.84;96662.81;5033371;28;20042;-73
2021/03/08 04:02:22;;;;;;;24.00;13.23;;;;;;;-1.67;59.66;96657.97;5025737;28;20041;-73
2021/03/08 04:04:58;;;;;;;19.90;12.75;;;;;;;-1.71;59.49;96654.03;5033439;28;20033;-73
2021/03/08 04:07:25;;;;;;;25.00;12.60;;;;;;;-1.73;59.95;96667.00;5033191;28;20428;-73
2021/03/08 04:09:54;;;;;;;22.30;12.95;;;;;;;-1.77;59.67;96670.00;5033402;28;20458;-73
2021/03/08 04:12:33;;;;;;;23.45;14.10;;;;;;;-1.81;59.84;96668.66;5016029;28;20038;-73
2021/03/08 04:15:09;;;;;;;24.30;14.07;;;;;;;-1.85;59.63;96674.06;5020512;28;20398;-73
2021/03/08 04:17:37;;;;;;;23.20;13.48;;;;;;;-1.87;59.93;96678.53;5033314;28;20025;-73
2021/03/08 04:20:10;;;;;;;23.58;13.02;;;;;;;-1.86;59.85;96676.75;5033099;28;20458;-73
2021/03/08 04:22:38;;;;;;;22.13;13.13;;;;;;;-1.90;59.75;96670.25;5032697;28;20045;-73
2021/03/08 04:25:08;;;;;;;25.67;14.15;;;;;;;-1.91;59.53;96669.47;5032227;28;20064;-73
2021/03/08 04:27:34;;;;;;;21.27;13.40;;;;;;;-1.93;59.72;96683.38;5033131;28;20056;-73
2021/03/08 04:30:03;;;;;;;21.00;13.07;;;;;;;-1.95;59.62;96680.97;5033316;28;20592;-73
2021/03/08 04:32:29;;;;;;;23.90;13.82;;;;;;;-1.95;59.61;96677.56;5032967;28;20389;-72
2021/03/08 04:34:56;;;;;;;25.83;13.98;;;;;;;-1.95;59.72;96690.41;5032325;28;20049;-73
2021/03/08 04:37:22;;;;;;;23.30;13.68;;;;;;;-1.98;59.90;96686.34;5014791;28;20045;-73
2021/03/08 04:39:50;;;;;;;26.10;13.88;;;;;;;-1.99;60.15;96692.44;5032063;28;20052;-73
2021/03/08 04:42:17;;;;;;;22.90;14.73;;;;;;;-2.02;60.16;96692.69;5033075;28;20056;-73
2021/03/08 04:44:46;;;;;;;26.98;15.60;;;;;;;-2.06;60.24;96691.34;5032901;28;20053;-73
2021/03/08 04:47:15;;;;;;;30.15;16.23;;;;;;;-2.07;60.45;96700.00;5032950;28;20033;-73
2021/03/08 04:49:44;;;;;;;28.52;14.93;;;;;;;-2.10;60.36;96700.25;5033127;28;20044;-73
2021/03/08 04:52:13;;;;;;;24.67;15.00;;;;;;;-2.09;60.37;96705.25;5033394;28;20037;-73
2021/03/08 04:54:44;;;;;;;27.30;15.90;;;;;;;-2.08;60.78;96706.91;5032026;28;20037;-73
2021/03/08 04:57:14;;;;;;;26.63;15.80;;;;;;;-2.07;60.63;96705.16;5033378;28;20042;-73
2021/03/08 04:59:40;;;;;;;25.23;15.88;;;;;;;-2.06;60.30;96705.03;5032720;28;20509;-73
2021/03/08 05:02:11;;;;;;;27.92;16.13;;;;;;;-2.06;60.54;96706.75;5015013;28;20048;-73
2021/03/08 05:04:39;;;;;;;28.92;16.10;;;;;;;-2.07;60.74;96711.09;5033273;28;20040;-73
2021/03/08 05:07:14;;;;;;;25.45;17.10;;;;;;;-2.07;61.33;96721.38;5032601;28;20044;-73
2021/03/08 05:09:41;;;;;;;28.42;17.33;;;;;;;-2.12;60.52;96713.25;5032839;28;20037;-73
2021/03/08 05:12:11;;;;;;;25.98;16.02;;;;;;;-2.15;60.87;96710.13;5032903;28;20036;-73
2021/03/08 05:14:39;;;;;;;25.60;15.95;;;;;;;-2.13;60.46;96715.94;5033261;28;20052;-73
2021/03/08 05:17:08;;;;;;;31.42;17.10;;;;;;;-2.18;60.93;96713.78;5032551;28;20045;-73
2021/03/08 05:19:38;;;;;;;28.25;16.73;;;;;;;-2.20;61.10;96710.53;5032845;28;20038;-73
2021/03/08 05:22:06;;;;;;;27.77;15.77;;;;;;;-2.23;60.82;96710.78;5032970;28;20030;-73
2021/03/08 05:24:32;;;;;;;32.03;18.13;;;;;;;-2.27;60.86;96714.53;5032771;28;20026;-73
2021/03/08 05:26:59;;;;;;;29.70;17.95;;;;;;;-2.29;61.05;96719.84;5032542;28;20037;-73
2021/03/08 05:29:25;;;;;;;26.98;17.13;;;;;;;-2.28;61.37;96728.34;5032353;28;20045;-73
2021/03/08 05:31:53;;;;;;;32.95;19.02;;;;;;;-2.30;61.56;96712.25;5032652;28;20489;-73
2021/03/08 05:34:21;;;;;;;28.65;16.55;;;;;;;-2.32;61.19;96714.94;5034204;28;20029;-73
2021/03/08 05:36:49;;;;;;;29.70;16.98;;;;;;;-2.34;61.46;96721.97;5036043;28;20052;-73
2021/03/08 05:39:16;;;;;;;26.70;16.63;;;;;;;-2.38;61.40;96722.38;5035679;28;20049;-73
2021/03/08 05:42:08;;;;;;;31.10;17.80;;;;;;;-2.42;63.34;96726.13;5035998;28;20053;-73
2021/03/08 05:44:36;;;;;;;34.55;18.88;;;;;;;-2.49;61.73;96715.56;5022499;28;20056;-73
2021/03/08 05:47:02;;;;;;;30.98;17.85;;;;;;;-2.54;61.65;96715.13;5035801;28;20053;-72
2021/03/08 05:49:40;;;;;;;32.85;17.65;;;;;;;-2.56;62.45;96714.44;5035975;28;20040;-73
2021/03/08 05:52:25;;;;;;;32.53;18.27;;;;;;;-2.58;61.83;96717.16;5035706;28;20037;-73
2021/03/08 05:55:03;;;;;;;30.10;17.80;;;;;;;-2.57;63.23;96723.09;5035635;28;20044;-73
2021/03/08 05:57:45;;;;;;;35.33;19.45;;;;;;;-2.49;68.81;96721.50;5035667;28;20040;-72
2021/03/08 06:00:40;;;;;;;34.45;18.58;;;;;;;-2.30;64.20;96712.25;5025344;28;20033;-73
2021/03/08 06:03:48;;;;;;;31.85;17.83;;;;;;;-2.19;63.34;96719.03;5025445;28;20037;-73
2021/03/08 06:06:56;;;;;;;31.98;17.05;;;;;;;-2.10;63.36;96725.94;5011394;28;20466;-73
2021/03/08 06:09:27;;;;;;;32.67;17.55;;;;;;;-2.07;62.25;96723.13;5034643;28;20049;-73
2021/03/08 06:12:03;;;;;;;42.00;22.80;;;;;;;-1.42;76.35;96740.66;5035909;28;20406;-72
2021/03/08 06:14:41;;;;;;;33.67;19.45;;;;;;;-1.12;65.08;96721.66;5035570;28;20466;-73
2021/03/08 06:17:11;;;;;;;35.03;18.27;;;;;;;-1.13;63.20;96710.56;5035835;28;20386;-73
2021/03/08 06:19:38;;;;;;;30.80;19.10;;;;;;;-1.22;62.43;96703.66;5035252;28;20037;-73
2021/03/08 06:22:13;;;;;;;30.60;17.52;;;;;;;-1.30;62.36;96706.09;5034781;28;20045;-73
2021/03/08 06:24:41;;;;;;;31.77;17.77;;;;;;;-1.34;62.24;96717.66;5035315;28;20040;-73
2021/03/08 06:27:09;;;;;;;33.38;18.48;;;;;;;-1.07;62.65;96714.34;5035400;28;20036;-72
2021/03/08 06:29:36;;;;;;;29.40;19.05;;;;;;;-0.58;62.66;96727.91;5035164;28;20033;-73
2021/03/08 06:32:04;;;;;;;32.58;19.05;;;;;;;0.02;62.33;96724.09;5035620;28;20040;-73
2021/03/08 06:34:31;;;;;;;27.02;17.85;;;;;;;0.56;61.64;96717.22;5034900;28;20041;-73
2021/03/08 06:37:03;;;;;;;30.90;18.13;;;;;;;1.12;60.39;96716.03;5034270;28;20064;-73
2021/03/08 06:39:34;;;;;;;32.47;18.20;;;;;;;1.67;59.56;96720.03;5035362;28;20045;-73
2021/03/08 06:42:02;;;;;;;29.77;17.33;;;;;;;2.16;59.85;96725.38;5035054;28;20489;-73
2021/03/08 06:44:30;;;;;;;31.35;18.15;;;;;;;2.60;59.16;96717.38;5017204;28;20048;-73
2021/03/08 06:46:57;;;;;;;27.45;18.20;;;;;;;2.95;58.24;96707.63;5034196;28;20040;-73
2021/03/08 06:49:24;;;;;;;31.20;18.02;;;;;;;3.30;57.63;96708.25;5034824;28;20037;-73
2021/03/08 06:52:13;;;;;;;28.70;16.42;;;;;;;3.57;52.94;96664.72;5027900;28;20038;-73
2021/03/08 06:54:44;;;;;;;31.90;17.95;;;;;;;3.89;56.35;96705.28;5035001;28;20052;-73
2021/03/08 06:57:31;;;;;;;26.80;17.88;;;;;;;4.13;51.90;96665.41;5034953;28;20044;-74
2021/03/08 06:59:59;;;;;;;29.55;17.42;;;;;;;4.40;55.15;96702.25;5034929;28;20037;-73
2021/03/08 07:02:38;;;;;;;28.65;17.80;;;;;;;4.76;51.48;96660.09;5016892;28;20425;-73
2021/03/08 07:05:06;;;;;;;29.50;17.60;;;;;;;5.00;54.14;96691.09;5034647;28;20033;-73
2021/03/08 07:07:56;;;;;;;28.25;18.67;;;;;;;5.31;50.08;96653.72;5035205;28;20489;-73
2021/03/08 07:10:40;;;;;;;29.10;18.90;;;;;;;5.66;49.82;96651.38;5016640;28;20033;-73
2021/03/08 07:13:09;;;;;;;25.60;17.27;;;;;;;5.98;52.62;96683.19;5034499;28;20393;-73
2021/03/08 07:15:54;;;;;;;26.52;17.00;;;;;;;6.30;47.83;96645.50;5034109;28;20385;-73
2021/03/08 07:18:21;;;;;;;31.45;17.67;;;;;;;6.55;51.50;96678.97;5034598;28;20037;-73
2021/03/08 07:21:15;;;;;;;24.58;16.73;;;;;;;6.77;48.39;96653.72;5034061;28;20362;-73
2021/03/08 07:23:42;;;;;;;25.45;16.63;;;;;;;7.01;49.77;96674.16;5033364;28;20444;-73
2021/03/08 07:26:14;;;;;;;25.73;16.10;;;;;;;7.10;47.46;96667.00;5034181;28;20040;-73
2021/03/08 07:28:41;;;;;;;29.50;17.58;;;;;;;6.85;48.29;96674.44;5032954;28;20068;-73
2021/03/08 07:31:09;;;;;;;23.73;16.30;;;;;;;6.71;48.55;96703.00;5033436;28;20482;-73
2021/03/08 07:33:35;;;;;;;24.80;16.23;;;;;;;6.79;48.43;96729.94;5034043;28;20057;-74
2021/03/08 07:36:13;;;;;;;27.40;17.02;;;;;;;6.98;45.47;96716.25;5033757;28;20036;-74
2021/03/08 07:38:40;;;;;;;26.17;16.73;;;;;;;7.16;47.70;96743.66;5033694;28;20041;-73
2021/03/08 07:41:20;;;;;;;26.08;17.27;;;;;;;7.04;44.93;96720.72;5034212;28;20041;-73
2021/03/08 07:43:52;;;;;;;23.73;16.63;;;;;;;7.00;46.29;96735.13;5033943;28;20393;-73
2021/03/08 07:46:36;;;;;;;23.42;16.35;;;;;;;6.97;44.08;96719.88;5033770;28;20041;-73
2021/03/08 07:49:05;;;;;;;24.17;17.70;;;;;;;7.11;46.00;96736.41;5034088;28;20040;-74
2021/03/08 07:51:32;;;;;;;21.83;16.25;;;;;;;7.29;46.18;96733.34;5015869;28;20275;-73
2021/03/08 07:54:01;;;;;;;23.27;15.85;;;;;;;7.56;45.64;96736.97;5034055;28;20030;-73
2021/03/08 07:56:28;;;;;;;22.20;16.42;;;;;;;7.79;45.34;96726.25;5033378;28;20476;-73
2021/03/08 07:58:55;;;;;;;29.02;20.17;;;;;;;7.75;44.69;96724.19;5032510;28;20041;-74
2021/03/08 08:01:22;;;;;;;27.55;19.42;;;;;;;7.72;44.80;96735.84;5033207;28;20048;-74
2021/03/08 08:03:49;;;;;;;23.75;18.50;;;;;;;7.80;44.61;96727.84;5033726;28;20033;-74
2021/03/08 08:06:20;;;;;;;22.67;16.73;;;;;;;7.77;43.10;96722.19;5033320;28;20065;-74
2021/03/08 08:08:48;;;;;;;29.85;18.65;;;;;;;7.76;43.58;96731.03;5016223;28;20033;-74
2021/03/08 08:11:19;;;;;;;24.90;18.42;;;;;;;7.81;43.84;96744.31;5033338;28;20474;-74
2021/03/08 08:14:00;;;;;;;27.90;18.15;;;;;;;7.71;41.71;96726.41;5033221;28;20060;-74
2021/03/08 08:16:30;;;;;;;22.75;17.55;;;;;;;7.82;42.44;96728.47;5033277;28;20048;-74
2021/03/08 08:19:03;;;;;;;29.10;18.17;;;;;;;8.07;41.72;96720.13;5025249;28;20398;-74
2021/03/08 08:21:35;;;;;;;25.33;17.90;;;;;;;8.10;41.57;96722.34;5033201;28;20033;-73
2021/03/08 08:24:05;;;;;;;28.50;18.58;;;;;;;8.16;42.38;96721.56;5033079;28;20033;-74
2021/03/08 08:26:32;;;;;;;26.10;18.45;;;;;;;8.26;42.15;96714.16;5032531;28;20497;-74
2021/03/08 08:28:59;;;;;;;27.95;17.73;;;;;;;8.51;42.40;96716.28;5033014;28;20406;-74
2021/03/08 08:31:25;;;;;;;26.38;19.45;;;;;;;8.40;41.34;96716.81;5033067;28;20041;-74
2021/03/08 08:33:54;;;;;;;22.90;17.38;;;;;;;8.30;41.53;96728.47;5033847;28;20042;-73
2021/03/08 08:36:25;;;;;;;24.38;18.23;;;;;;;8.37;40.85;96723.25;5038277;28;20049;-74
2021/03/08 08:38:51;;;;;;;25.50;17.80;;;;;;;8.44;40.82;96718.06;5039929;28;20486;-74
2021/03/08 08:41:23;;;;;;;24.67;17.23;;;;;;;8.72;40.64;96723.16;5033337;28;20481;-73
2021/03/08 08:44:12;;;;;;;23.73;17.15;;;;;;;8.97;38.52;96699.84;5032820;28;20484;-73
2021/03/08 08:46:41;;;;;;;27.17;17.85;;;;;;;9.13;40.18;96714.31;5033252;28;20037;-73
2021/03/08 08:49:20;;;;;;;24.25;17.48;;;;;;;9.24;39.77;96710.28;5032703;28;20041;-74
2021/03/08 08:51:54;;;;;;;24.65;17.85;;;;;;;9.27;39.75;96718.53;5038011;28;20037;-73
2021/03/08 08:54:32;;;;;;;26.08;18.40;;;;;;;9.32;38.22;96704.84;5033133;28;20033;-73
2021/03/08 08:57:01;;;;;;;28.15;19.23;;;;;;;9.24;39.13;96778.31;5032855;28;20033;-73
2021/03/08 08:59:28;;;;;;;25.48;18.67;;;;;;;9.09;39.45;96781.13;5032881;28;20037;-74
2021/03/08 09:02:14;;;;;;;24.50;17.95;;;;;;;8.79;38.63;96775.47;5032621;28;20033;-73
2021/03/08 09:04:41;;;;;;;26.02;16.65;;;;;;;8.65;39.60;96775.44;5032672;28;20049;-74
2021/03/08 09:07:23;;;;;;;26.75;17.27;;;;;;;8.49;39.09;96778.41;5033188;28;20041;-73
2021/03/08 09:09:49;;;;;;;20.48;15.43;;;;;;;8.27;39.91;96777.69;5035253;28;20044;-73
2021/03/08 09:12:39;;;;;;;23.45;15.55;;;;;;;7.96;39.93;96775.53;5038045;28;20397;-74
2021/03/08 09:15:09;;;;;;;23.70;15.40;;;;;;;7.64;40.17;96775.13;5036294;28;20029;-73
2021/03/08 09:17:47;;;;;;;22.15;15.48;;;;;;;7.45;40.74;96784.44;5036612;28;20041;-74
2021/03/08 09:20:14;;;;;;;23.05;16.27;;;;;;;7.34;40.62;96782.34;5036275;28;20037;-74
2021/03/08 09:22:47;;;;;;;20.55;15.88;;;;;;;7.15;40.92;96779.38;5038027;28;20037;-74
2021/03/08 09:25:20;;;;;;;22.10;16.13;;;;;;;7.06;41.30;96785.75;5025710;28;20057;-73
2021/03/08 09:27:58;;;;;;;21.08;15.13;;;;;;;7.00;41.04;96789.09;5036435;28;20050;-73
2021/03/08 09:30:46;;;;;;;22.58;15.05;;;;;;;7.03;41.83;96789.50;5036518;28;20041;-73
2021/03/08 09:33:19;;;;;;;18.17;13.70;;;;;;;6.89;40.97;96780.75;5035459;28;20070;-73
2021/03/08 09:35:48;;;;;;;19.38;13.57;;;;;;;6.86;41.28;96791.56;5036669;28;20425;-73
2021/03/08 09:38:25;;;;;;;21.45;13.52;;;;;;;6.75;40.70;96783.44;5036002;28;20053;-73
2021/03/08 09:40:57;;;;;;;18.40;13.05;;;;;;;6.63;40.34;96780.50;5036268;28;20046;-73
2021/03/08 09:43:26;;;;;;;19.70;13.07;;;;;;;6.52;40.99;96784.38;5035974;28;20048;-73
2021/03/08 09:46:10;;;;;;;22.30;14.15;;;;;;;6.45;40.79;96776.50;5023131;28;20041;-73
2021/03/08 09:48:41;;;;;;;20.75;13.75;;;;;;;6.22;40.67;96783.66;5035463;28;20057;-73
2021/03/08 09:51:16;;;;;;;21.95;14.00;;;;;;;6.10;41.16;96781.47;5036004;28;20037;-73
2021/03/08 09:53:48;;;;;;;21.50;13.65;;;;;;;6.23;41.28;96786.03;5024625;28;20038;-74
2021/03/08 09:56:16;;;;;;;18.75;13.98;;;;;;;6.26;41.19;96779.69;5034889;28;20033;-73
2021/03/08 09:58:44;;;;;;;18.02;12.05;;;;;;;6.08;40.96;96782.66;5034895;28;20050;-73
2021/03/08 10:01:15;;;;;;;17.85;13.13;;;;;;;5.77;41.07;96782.81;5035940;28;20041;-73
2021/03/08 10:03:42;;;;;;;18.80;12.32;;;;;;;5.52;41.31;96782.25;5035780;28;20053;-73
2021/03/08 10:06:30;;;;;;;16.83;12.90;;;;;;;5.40;41.02;96785.28;5035810;28;20041;-73
2021/03/08 10:08:58;;;;;;;19.30;12.95;;;;;;;5.33;41.40;96781.75;5035494;28;20056;-73
2021/03/08 10:11:24;;;;;;;19.95;13.50;;;;;;;5.25;41.95;96789.66;5035343;28;20041;-73
2021/03/08 10:13:52;;;;;;;19.65;13.55;;;;;;;5.44;42.00;96783.97;5035475;28;20397;-73
2021/03/08 10:16:24;;;;;;;20.80;14.13;;;;;;;5.62;41.65;96775.00;5035560;28;20041;-73
2021/03/08 10:19:09;;;;;;;19.17;13.50;;;;;;;5.66;42.01;96779.66;5090835;28;20385;-74
2021/03/08 10:21:42;;;;;;;21.93;13.67;;;;;;;5.84;41.89;96770.72;5090926;28;20480;-73
2021/03/08 10:24:09;;;;;;;19.95;13.88;;;;;;;5.84;41.60;96765.50;5090918;28;20040;-74
2021/03/08 10:26:35;;;;;;;21.98;14.00;;;;;;;5.85;41.58;96767.91;5090577;28;20099;-73
2021/03/08 10:29:02;;;;;;;22.42;15.80;;;;;;;5.76;41.75;96771.59;5090594;28;20036;-74
2021/03/08 10:31:30;;;;;;;21.92;14.93;;;;;;;6.02;42.08;96778.19;5090439;28;20036;-74
2021/03/08 10:34:01;;;;;;;21.38;15.27;;;;;;;6.37;42.04;96781.00;5090693;28;20044;-73
2021/03/08 10:36:35;;;;;;;22.20;15.73;;;;;;;6.57;42.04;96771.59;5079768;28;20041;-74
2021/03/08 10:39:05;;;;;;;23.95;16.23;;;;;;;6.78;42.05;96778.63;5090284;28;20032;-73
2021/03/08 10:41:32;;;;;;;22.00;16.33;;;;;;;6.94;41.81;96772.38;5090519;28;20472;-73
2021/03/08 10:43:59;;;;;;;25.95;17.08;;;;;;;7.09;41.83;96765.28;5089669;28;20067;-74
2021/03/08 10:46:30;;;;;;;21.98;16.27;;;;;;;7.14;41.73;96767.34;5090005;28;20047;-74
2021/03/08 10:48:59;;;;;;;26.00;17.02;;;;;;;7.25;41.76;96760.81;5090620;28;20036;-74
2021/03/08 10:51:27;;;;;;;22.02;16.92;;;;;;;7.40;41.96;96771.16;5090153;28;20043;-73
2021/03/08 10:54:14;;;;;;;22.10;15.93;;;;;;;7.26;41.31;96758.00;5089389;28;20435;-74
2021/03/08 10:56:43;;;;;;;21.58;15.90;;;;;;;7.21;41.54;96759.59;5089674;28;20048;-74
2021/03/08 10:59:31;;;;;;;24.15;16.52;;;;;;;7.19;40.76;96744.13;5090699;28;20376;-74
2021/03/08 11:02:05;;;;;;;24.08;17.25;;;;;;;7.18;41.65;96760.78;5076606;28;20032;-74
2021/03/08 11:04:32;;;;;;;22.48;14.43;;;;;;;7.55;44.69;96744.97;5089897;28;20036;-73
2021/03/08 11:06:59;;;;;;;24.35;16.25;;;;;;;8.23;43.04;96745.94;5089674;28;20079;-74
2021/03/08 11:09:33;;;;;;;20.92;15.60;;;;;;;8.27;41.17;96738.50;5090375;28;20040;-74
2021/03/08 11:12:04;;;;;;;22.50;15.43;;;;;;;8.21;39.38;96734.03;5089753;28;20456;-74
2021/03/08 11:14:47;;;;;;;21.85;15.98;;;;;;;7.89;39.75;96744.94;5089861;28;20032;-74
2021/03/08 11:17:14;;;;;;;26.30;16.52;;;;;;;7.46;41.00;96747.72;5089178;28;20059;-74
2021/03/08 11:19:40;;;;;;;25.08;16.42;;;;;;;7.62;41.80;96753.63;5089490;28;20051;-74
2021/03/08 11:22:09;;;;;;;20.33;15.63;;;;;;;7.85;41.34;96755.97;5089306;28;20039;-73
2021/03/08 11:24:47;;;;;;;22.85;14.77;;;;;;;8.11;40.31;96748.28;5089720;28;20043;-74
2021/03/08 11:27:13;;;;;;;21.17;14.57;;;;;;;8.22;41.01;96752.13;5089657;28;20032;-74
2021/03/08 11:29:42;;;;;;;18.33;14.68;;;;;;;8.25;40.73;96745.72;5079850;28;20040;-74
2021/03/08 11:32:09;;;;;;;22.17;15.75;;;;;;;8.16;40.59;96752.91;5076230;28;20036;-73
2021/03/08 11:34:40;;;;;;;21.02;15.50;;;;;;;8.00;40.22;96750.63;5075489;28;20056;-73
2021/03/08 11:37:15;;;;;;;23.17;15.30;;;;;;;7.76;40.52;96749.31;5076109;28;20382;-73
2021/03/08 11:39:46;;;;;;;;;;;;;;;7.52;40.42;96748.78;5076314;28;20370;-74